Hastings, United Kingdom
Current Conditions -  °F | °C
As of 5:50 AM on Sunday 23 Nov 2014 (Local Time) from EGKK Reporting Station
Moderate Rain Moderate Rain  
Wind Chill: 11°   Ceiling: Unl
Heat Index: 11°   Visibility: 5mi
Dew Point: 10°   Wind: 7mph
Humidity: 94%   Direction: 300°WNW
Pressure: 29.97"   Gusts: NA
Location:  50.86°N, 0.57°E
Report Text: EGKK 230550Z 30006KT 270V330 8000 RA FEW005 SCT008 11/10 Q1015
Loading
Personal Weather Stations






























Interactive Weather Map New forecast layout! Learn more

10-Day Weather Forecast

Advertisements
Track Severe Weather on mobile